sensor_id;sensor_type;location;lat;lon;timestamp;pressure;altitude;pressure_sealevel;temperature;humidity
60832;BME280;46665;51.558;-0.448;2023-09-19T00:00:41;100256.50;;;12.26;100.00
60832;BME280;46665;51.558;-0.448;2023-09-19T00:03:25;100257.31;;;12.26;100.00
60832;BME280;46665;51.558;-0.448;2023-09-19T00:06:09;100263.28;;;12.28;100.00
60832;BME280;46665;51.558;-0.448;2023-09-19T00:08:54;100258.91;;;12.27;100.00
60832;BME280;46665;51.558;-0.448;2023-09-19T00:11:39;100256.59;;;12.21;100.00
60832;BME280;46665;51.558;-0.448;2023-09-19T00:14:25;100261.13;;;12.25;100.00
60832;BME280;46665;51.558;-0.448;2023-09-19T00:17:09;100255.19;;;12.23;100.00
60832;BME280;46665;51.558;-0.448;2023-09-19T00:19:53;100243.44;;;12.23;100.00
60832;BME280;46665;51.558;-0.448;2023-09-19T00:22:39;100257.91;;;12.23;100.00
60832;BME280;46665;51.558;-0.448;2023-09-19T00:25:23;100252.66;;;12.27;100.00
60832;BME280;46665;51.558;-0.448;2023-09-19T00:28:07;100256.91;;;12.33;100.00
60832;BME280;46665;51.558;-0.448;2023-09-19T00:30:51;100244.38;;;12.32;100.00
60832;BME280;46665;51.558;-0.448;2023-09-19T00:33:35;100251.25;;;12.29;100.00
60832;BME280;46665;51.558;-0.448;2023-09-19T00:36:20;100251.44;;;12.33;100.00
60832;BME280;46665;51.558;-0.448;2023-09-19T00:39:04;100249.13;;;12.26;100.00
60832;BME280;46665;51.558;-0.448;2023-09-19T00:41:49;100270.63;;;12.28;100.00
60832;BME280;46665;51.558;-0.448;2023-09-19T00:44:34;100269.63;;;12.24;100.00
60832;BME280;46665;51.558;-0.448;2023-09-19T00:47:18;100277.50;;;12.25;100.00
60832;BME280;46665;51.558;-0.448;2023-09-19T00:50:04;100269.94;;;12.22;100.00
60832;BME280;46665;51.558;-0.448;2023-09-19T00:52:54;100279.75;;;12.23;100.00
60832;BME280;46665;51.558;-0.448;2023-09-19T00:55:41;100274.59;;;12.22;100.00
60832;BME280;46665;51.558;-0.448;2023-09-19T00:58:26;100272.75;;;12.17;100.00
60832;BME280;46665;51.558;-0.448;2023-09-19T01:01:16;100280.03;;;12.22;100.00
60832;BME280;46665;51.558;-0.448;2023-09-19T01:04:00;100281.44;;;12.19;100.00
60832;BME280;46665;51.558;-0.448;2023-09-19T01:06:45;100284.19;;;12.19;100.00
60832;BME280;46665;51.558;-0.448;2023-09-19T01:09:29;100283.66;;;12.17;100.00
60832;BME280;46665;51.558;-0.448;2023-09-19T01:12:16;100285.78;;;12.20;100.00
60832;BME280;46665;51.558;-0.448;2023-09-19T01:21:11;100285.88;;;12.15;100.00
60832;BME280;46665;51.558;-0.448;2023-09-19T01:24:25;100281.44;;;12.19;100.00
60832;BME280;46665;51.558;-0.448;2023-09-19T01:30:40;100281.44;;;12.19;100.00
60832;BME280;46665;51.558;-0.448;2023-09-19T01:33:26;100273.34;;;12.14;100.00
60832;BME280;46665;51.558;-0.448;2023-09-19T01:36:10;100273.06;;;12.16;100.00
60832;BME280;46665;51.558;-0.448;2023-09-19T01:38:55;100260.84;;;12.13;100.00
60832;BME280;46665;51.558;-0.448;2023-09-19T01:42:12;100263.75;;;12.17;100.00
60832;BME280;46665;51.558;-0.448;2023-09-19T01:45:12;100259.44;;;12.16;100.00
60832;BME280;46665;51.558;-0.448;2023-09-19T01:48:03;100260.75;;;12.18;100.00
60832;BME280;46665;51.558;-0.448;2023-09-19T01:50:55;100259.34;;;12.21;100.00
60832;BME280;46665;51.558;-0.448;2023-09-19T01:53:53;100256.09;;;12.19;100.00
60832;BME280;46665;51.558;-0.448;2023-09-19T01:57:04;100252.25;;;12.20;100.00
60832;BME280;46665;51.558;-0.448;2023-09-19T01:59:53;100244.88;;;12.20;100.00
60832;BME280;46665;51.558;-0.448;2023-09-19T02:02:42;100247.09;;;12.18;100.00
60832;BME280;46665;51.558;-0.448;2023-09-19T02:05:28;100258.59;;;12.15;100.00
60832;BME280;46665;51.558;-0.448;2023-09-19T02:08:18;100265.19;;;12.14;100.00
60832;BME280;46665;51.558;-0.448;2023-09-19T02:11:03;100267.28;;;12.17;100.00
60832;BME280;46665;51.558;-0.448;2023-09-19T02:13:47;100284.78;;;12.16;100.00
60832;BME280;46665;51.558;-0.448;2023-09-19T02:16:30;100273.88;;;12.16;100.00
60832;BME280;46665;51.558;-0.448;2023-09-19T02:19:14;100283.16;;;12.15;100.00
60832;BME280;46665;51.558;-0.448;2023-09-19T02:21:58;100281.25;;;12.16;100.00
60832;BME280;46665;51.558;-0.448;2023-09-19T02:24:42;100273.66;;;12.12;100.00
60832;BME280;46665;51.558;-0.448;2023-09-19T02:27:26;100284.25;;;12.14;100.00
60832;BME280;46665;51.558;-0.448;2023-09-19T02:30:10;100282.66;;;12.13;100.00
60832;BME280;46665;51.558;-0.448;2023-09-19T02:32:55;100284.25;;;12.14;100.00
60832;BME280;46665;51.558;-0.448;2023-09-19T02:35:39;100285.06;;;12.14;100.00
60832;BME280;46665;51.558;-0.448;2023-09-19T02:38:24;100269.22;;;12.17;100.00
60832;BME280;46665;51.558;-0.448;2023-09-19T02:41:09;100265.06;;;12.19;100.00
60832;BME280;46665;51.558;-0.448;2023-09-19T02:43:53;100253.38;;;12.19;100.00
60832;BME280;46665;51.558;-0.448;2023-09-19T02:46:38;100256.59;;;12.21;100.00
60832;BME280;46665;51.558;-0.448;2023-09-19T02:49:22;100253.66;;;12.17;100.00
60832;BME280;46665;51.558;-0.448;2023-09-19T02:52:05;100256.38;;;12.17;100.00
60832;BME280;46665;51.558;-0.448;2023-09-19T02:54:51;100261.84;;;12.17;100.00
60832;BME280;46665;51.558;-0.448;2023-09-19T02:57:36;100260.75;;;12.18;100.00
60832;BME280;46665;51.558;-0.448;2023-09-19T03:00:24;100261.22;;;12.20;100.00
60832;BME280;46665;51.558;-0.448;2023-09-19T03:03:08;100259.00;;;12.22;100.00
60832;BME280;46665;51.558;-0.448;2023-09-19T03:05:52;100263.84;;;12.25;100.00
60832;BME280;46665;51.558;-0.448;2023-09-19T03:08:37;100266.91;;;12.24;100.00
60832;BME280;46665;51.558;-0.448;2023-09-19T03:11:23;100256.50;;;12.26;100.00
60832;BME280;46665;51.558;-0.448;2023-09-19T03:14:07;100255.19;;;12.23;100.00
60832;BME280;46665;51.558;-0.448;2023-09-19T03:16:51;100247.31;;;12.22;100.00
60832;BME280;46665;51.558;-0.448;2023-09-19T03:19:36;100241.03;;;12.21;100.00
60832;BME280;46665;51.558;-0.448;2023-09-19T03:22:22;100256.28;;;12.22;100.00
60832;BME280;46665;51.558;-0.448;2023-09-19T03:25:08;100247.00;;;12.23;100.00
60832;BME280;46665;51.558;-0.448;2023-09-19T03:27:52;100248.31;;;12.26;100.00
60832;BME280;46665;51.558;-0.448;2023-09-19T03:30:37;100247.22;;;12.27;100.00
60832;BME280;46665;51.558;-0.448;2023-09-19T03:33:22;100242.88;;;12.26;100.00
60832;BME280;46665;51.558;-0.448;2023-09-19T03:36:06;100239.81;;;12.27;100.00
60832;BME280;46665;51.558;-0.448;2023-09-19T03:38:50;100231.63;;;12.27;100.00
60832;BME280;46665;51.558;-0.448;2023-09-19T03:41:34;100228.28;;;12.30;100.00
60832;BME280;46665;51.558;-0.448;2023-09-19T03:44:20;100226.69;;;12.29;100.00
60832;BME280;46665;51.558;-0.448;2023-09-19T03:47:04;100215.78;;;12.29;100.00
60832;BME280;46665;51.558;-0.448;2023-09-19T03:49:48;100211.13;;;12.30;100.00
60832;BME280;46665;51.558;-0.448;2023-09-19T03:52:32;100212.16;;;12.34;100.00
60832;BME280;46665;51.558;-0.448;2023-09-19T03:55:16;100208.41;;;12.30;100.00
60832;BME280;46665;51.558;-0.448;2023-09-19T03:58:03;100197.50;;;12.30;100.00
60832;BME280;46665;51.558;-0.448;2023-09-19T04:00:47;100194.75;;;12.30;100.00
60832;BME280;46665;51.558;-0.448;2023-09-19T04:03:33;100196.06;;;12.32;100.00
60832;BME280;46665;51.558;-0.448;2023-09-19T04:06:31;100187.88;;;12.32;100.00
60832;BME280;46665;51.558;-0.448;2023-09-19T04:09:16;100182.25;;;12.29;100.00
60832;BME280;46665;51.558;-0.448;2023-09-19T04:12:00;100174.34;;;12.27;100.00
60832;BME280;46665;51.558;-0.448;2023-09-19T04:14:45;100182.13;;;12.34;100.00
60832;BME280;46665;51.558;-0.448;2023-09-19T04:17:29;100181.53;;;12.37;100.00
60832;BME280;46665;51.558;-0.448;2023-09-19T04:20:13;100165.97;;;12.38;100.00
60832;BME280;46665;51.558;-0.448;2023-09-19T04:22:57;100165.97;;;12.38;100.00
60832;BME280;46665;51.558;-0.448;2023-09-19T04:25:41;100171.63;;;12.41;100.00
60832;BME280;46665;51.558;-0.448;2023-09-19T04:28:25;100172.44;;;12.42;100.00
60832;BME280;46665;51.558;-0.448;2023-09-19T04:31:11;100158.97;;;12.45;100.00
60832;BME280;46665;51.558;-0.448;2023-09-19T04:33:55;100157.38;;;12.44;100.00
60832;BME280;46665;51.558;-0.448;2023-09-19T04:36:39;100156.75;;;12.47;100.00
60832;BME280;46665;51.558;-0.448;2023-09-19T04:39:23;100161.41;;;12.47;100.00
60832;BME280;46665;51.558;-0.448;2023-09-19T04:42:09;100159.19;;;12.49;100.00
60832;BME280;46665;51.558;-0.448;2023-09-19T04:44:55;100155.34;;;12.50;100.00
60832;BME280;46665;51.558;-0.448;2023-09-19T04:47:39;100162.91;;;12.53;100.00
60832;BME280;46665;51.558;-0.448;2023-09-19T04:50:23;100164.72;;;12.57;100.00
60832;BME280;46665;51.558;-0.448;2023-09-19T04:53:10;100163.31;;;12.60;100.00
60832;BME280;46665;51.558;-0.448;2023-09-19T04:55:54;100162.38;;;12.65;100.00
60832;BME280;46665;51.558;-0.448;2023-09-19T04:58:40;100160.66;;;12.69;100.00
60832;BME280;46665;51.558;-0.448;2023-09-19T05:01:24;100160.84;;;12.72;100.00
60832;BME280;46665;51.558;-0.448;2023-09-19T05:04:08;100162.34;;;12.78;100.00
60832;BME280;46665;51.558;-0.448;2023-09-19T05:06:52;100159.50;;;12.84;100.00
60832;BME280;46665;51.558;-0.448;2023-09-19T05:09:37;100156.16;;;12.87;100.00
60832;BME280;46665;51.558;-0.448;2023-09-19T05:12:21;100160.59;;;12.96;100.00
60832;BME280;46665;51.558;-0.448;2023-09-19T05:15:06;100164.31;;;13.00;100.00
60832;BME280;46665;51.558;-0.448;2023-09-19T05:17:51;100156.63;;;13.02;100.00
60832;BME280;46665;51.558;-0.448;2023-09-19T05:20:38;100157.81;;;13.10;100.00
60832;BME280;46665;51.558;-0.448;2023-09-19T05:23:23;100156.38;;;13.13;100.00
60832;BME280;46665;51.558;-0.448;2023-09-19T05:26:07;100155.44;;;13.17;100.00
60832;BME280;46665;51.558;-0.448;2023-09-19T05:28:51;100154.03;;;13.20;100.00
60832;BME280;46665;51.558;-0.448;2023-09-19T05:31:36;100155.00;;;13.24;100.00
60832;BME280;46665;51.558;-0.448;2023-09-19T05:34:24;100147.22;;;13.31;100.00
60832;BME280;46665;51.558;-0.448;2023-09-19T05:37:12;100143.88;;;13.34;100.00
60832;BME280;46665;51.558;-0.448;2023-09-19T05:39:56;100138.56;;;13.38;100.00
60832;BME280;46665;51.558;-0.448;2023-09-19T05:42:41;100133.78;;;13.43;100.00
60832;BME280;46665;51.558;-0.448;2023-09-19T05:45:27;100126.59;;;13.48;100.00
60832;BME280;46665;51.558;-0.448;2023-09-19T05:48:12;100118.41;;;13.56;100.00
60832;BME280;46665;51.558;-0.448;2023-09-19T05:51:00;100120.72;;;13.63;100.00
60832;BME280;46665;51.558;-0.448;2023-09-19T05:53:45;100118.81;;;13.72;100.00
60832;BME280;46665;51.558;-0.448;2023-09-19T05:56:32;100115.78;;;13.74;100.00
60832;BME280;46665;51.558;-0.448;2023-09-19T05:59:15;100102.16;;;13.82;100.00
60832;BME280;46665;51.558;-0.448;2023-09-19T06:01:59;100098.91;;;13.80;100.00
60832;BME280;46665;51.558;-0.448;2023-09-19T06:04:44;100097.16;;;13.84;100.00
60832;BME280;46665;51.558;-0.448;2023-09-19T06:07:28;100095.72;;;13.87;100.00
60832;BME280;46665;51.558;-0.448;2023-09-19T06:10:20;100094.59;;;13.88;100.00
60832;BME280;46665;51.558;-0.448;2023-09-19T06:13:07;100076.13;;;13.94;100.00
60832;BME280;46665;51.558;-0.448;2023-09-19T06:15:55;100088.84;;;13.98;100.00
60832;BME280;46665;51.558;-0.448;2023-09-19T06:18:40;100086.47;;;14.05;100.00
60832;BME280;46665;51.558;-0.448;2023-09-19T06:21:24;100074.38;;;14.06;100.00
60832;BME280;46665;51.558;-0.448;2023-09-19T06:24:08;100076.66;;;14.13;100.00
60832;BME280;46665;51.558;-0.448;2023-09-19T06:26:52;100063.28;;;14.12;100.00
60832;BME280;46665;51.558;-0.448;2023-09-19T06:29:36;100067.81;;;14.16;100.00
60832;BME280;46665;51.558;-0.448;2023-09-19T06:32:27;100076.66;;;14.22;100.00
60832;BME280;46665;51.558;-0.448;2023-09-19T06:35:12;100075.38;;;14.28;100.00
60832;BME280;46665;51.558;-0.448;2023-09-19T06:37:57;100064.59;;;14.31;100.00
60832;BME280;46665;51.558;-0.448;2023-09-19T06:40:41;100077.66;;;14.35;100.00
60832;BME280;46665;51.558;-0.448;2023-09-19T06:43:26;100077.03;;;14.46;100.00
60832;BME280;46665;51.558;-0.448;2023-09-19T06:46:11;100073.81;;;14.53;100.00
60832;BME280;46665;51.558;-0.448;2023-09-19T06:48:56;100067.38;;;14.58;100.00
60832;BME280;46665;51.558;-0.448;2023-09-19T06:51:40;100061.75;;;14.63;100.00
60832;BME280;46665;51.558;-0.448;2023-09-19T06:54:25;100063.84;;;14.66;100.00
60832;BME280;46665;51.558;-0.448;2023-09-19T06:57:13;100064.50;;;14.71;100.00
60832;BME280;46665;51.558;-0.448;2023-09-19T06:59:57;100053.22;;;14.73;100.00
60832;BME280;46665;51.558;-0.448;2023-09-19T07:02:42;100031.00;;;14.74;100.00
60832;BME280;46665;51.558;-0.448;2023-09-19T07:05:36;100043.38;;;14.81;100.00
60832;BME280;46665;51.558;-0.448;2023-09-19T07:08:21;100045.16;;;14.85;100.00
60832;BME280;46665;51.558;-0.448;2023-09-19T07:11:05;100040.47;;;14.86;100.00
60832;BME280;46665;51.558;-0.448;2023-09-19T07:13:49;100040.16;;;14.87;100.00
60832;BME280;46665;51.558;-0.448;2023-09-19T07:16:34;100032.25;;;14.86;100.00
60832;BME280;46665;51.558;-0.448;2023-09-19T07:19:19;100030.34;;;14.86;100.00
60832;BME280;46665;51.558;-0.448;2023-09-19T07:22:03;100025.31;;;14.88;100.00
60832;BME280;46665;51.558;-0.448;2023-09-19T07:24:47;100021.28;;;14.94;100.00
60832;BME280;46665;51.558;-0.448;2023-09-19T07:27:32;100021.59;;;14.93;100.00
60832;BME280;46665;51.558;-0.448;2023-09-19T07:30:16;100015.97;;;14.98;100.00
60832;BME280;46665;51.558;-0.448;2023-09-19T07:33:00;100007.06;;;15.01;100.00
60832;BME280;46665;51.558;-0.448;2023-09-19T07:35:47;100015.47;;;15.05;100.00
60832;BME280;46665;51.558;-0.448;2023-09-19T07:38:31;100012.72;;;15.05;100.00
60832;BME280;46665;51.558;-0.448;2023-09-19T07:41:19;100007.25;;;15.05;100.00
60832;BME280;46665;51.558;-0.448;2023-09-19T07:44:03;100012.88;;;15.08;100.00
60832;BME280;46665;51.558;-0.448;2023-09-19T07:46:47;100010.63;;;15.10;100.00
60832;BME280;46665;51.558;-0.448;2023-09-19T07:49:34;100007.88;;;15.10;100.00
60832;BME280;46665;51.558;-0.448;2023-09-19T07:52:18;100016.56;;;15.12;100.00
60832;BME280;46665;51.558;-0.448;2023-09-19T07:55:03;100023.16;;;15.11;100.00
60832;BME280;46665;51.558;-0.448;2023-09-19T07:57:52;100019.31;;;15.04;100.00
60832;BME280;46665;51.558;-0.448;2023-09-19T08:00:36;100032.56;;;15.02;100.00
60832;BME280;46665;51.558;-0.448;2023-09-19T08:03:20;100038.84;;;14.93;100.00
60832;BME280;46665;51.558;-0.448;2023-09-19T08:06:04;100028.38;;;14.95;100.00
60832;BME280;46665;51.558;-0.448;2023-09-19T08:08:51;100018.72;;;14.89;100.00
60832;BME280;46665;51.558;-0.448;2023-09-19T08:11:37;100000.22;;;14.86;100.00
60832;BME280;46665;51.558;-0.448;2023-09-19T08:14:21;100012.44;;;14.80;100.00
60832;BME280;46665;51.558;-0.448;2023-09-19T08:17:06;100011.00;;;14.91;100.00
60832;BME280;46665;51.558;-0.448;2023-09-19T08:19:52;100007.06;;;15.01;100.00
60832;BME280;46665;51.558;-0.448;2023-09-19T08:22:36;100001.59;;;15.10;100.00
60832;BME280;46665;51.558;-0.448;2023-09-19T08:25:21;100000.94;;;15.13;100.00
60832;BME280;46665;51.558;-0.448;2023-09-19T08:28:06;99996.88;;;15.19;100.00
60832;BME280;46665;51.558;-0.448;2023-09-19T08:30:52;100014.09;;;15.28;100.00
60832;BME280;46665;51.558;-0.448;2023-09-19T08:33:37;100013.44;;;15.31;100.00
60832;BME280;46665;51.558;-0.448;2023-09-19T08:36:21;100012.47;;;15.36;100.00
60832;BME280;46665;51.558;-0.448;2023-09-19T08:39:05;100022.44;;;15.41;100.00
60832;BME280;46665;51.558;-0.448;2023-09-19T08:41:49;100008.06;;;15.44;100.00
60832;BME280;46665;51.558;-0.448;2023-09-19T08:44:37;100016.41;;;15.56;100.00
60832;BME280;46665;51.558;-0.448;2023-09-19T08:47:34;100020.56;;;15.62;100.00
60832;BME280;46665;51.558;-0.448;2023-09-19T08:50:26;100029.13;;;15.69;100.00
60832;BME280;46665;51.558;-0.448;2023-09-19T08:53:16;100040.09;;;15.69;100.00
60832;BME280;46665;51.558;-0.448;2023-09-19T08:56:07;100049.13;;;15.61;100.00
60832;BME280;46665;51.558;-0.448;2023-09-19T08:58:57;100048.84;;;15.54;100.00
60832;BME280;46665;51.558;-0.448;2023-09-19T09:01:43;100028.72;;;15.50;100.00
60832;BME280;46665;51.558;-0.448;2023-09-19T09:04:27;100037.13;;;15.45;100.00
60832;BME280;46665;51.558;-0.448;2023-09-19T09:07:13;100015.00;;;15.50;100.00
60832;BME280;46665;51.558;-0.448;2023-09-19T09:09:57;100028.19;;;15.56;100.00
60832;BME280;46665;51.558;-0.448;2023-09-19T09:12:42;100017.50;;;15.64;100.00
60832;BME280;46665;51.558;-0.448;2023-09-19T09:15:29;100017.97;;;15.66;100.00
60832;BME280;46665;51.558;-0.448;2023-09-19T09:18:14;100016.50;;;15.68;100.00
60832;BME280;46665;51.558;-0.448;2023-09-19T09:20:58;100017.97;;;15.74;100.00
60832;BME280;46665;51.558;-0.448;2023-09-19T09:23:42;100005.06;;;15.75;100.00
60832;BME280;46665;51.558;-0.448;2023-09-19T09:26:42;100012.03;;;15.72;100.00
60832;BME280;46665;51.558;-0.448;2023-09-19T09:29:44;100008.81;;;15.70;100.00
60832;BME280;46665;51.558;-0.448;2023-09-19T09:32:30;100018.25;;;15.81;100.00
60832;BME280;46665;51.558;-0.448;2023-09-19T09:35:20;100018.66;;;15.92;100.00
60832;BME280;46665;51.558;-0.448;2023-09-19T09:38:04;100013.59;;;16.03;100.00
60832;BME280;46665;51.558;-0.448;2023-09-19T09:40:55;100012.38;;;16.13;100.00
60832;BME280;46665;51.558;-0.448;2023-09-19T09:43:44;100005.59;;;16.19;100.00
60832;BME280;46665;51.558;-0.448;2023-09-19T09:46:30;100004.22;;;16.25;100.00
60832;BME280;46665;51.558;-0.448;2023-09-19T09:49:34;100021.25;;;16.39;100.00
60832;BME280;46665;51.558;-0.448;2023-09-19T09:52:18;99995.53;;;16.44;100.00
60832;BME280;46665;51.558;-0.448;2023-09-19T09:55:03;99999.19;;;16.48;100.00
60832;BME280;46665;51.558;-0.448;2023-09-19T09:58:15;100004.03;;;16.51;100.00
60832;BME280;46665;51.558;-0.448;2023-09-19T10:01:01;100002.47;;;16.62;100.00
60832;BME280;46665;51.558;-0.448;2023-09-19T10:03:58;100004.00;;;16.72;100.00
60832;BME280;46665;51.558;-0.448;2023-09-19T10:06:44;99983.22;;;16.83;100.00
60832;BME280;46665;51.558;-0.448;2023-09-19T10:09:47;99992.94;;;16.81;100.00
60832;BME280;46665;51.558;-0.448;2023-09-19T10:12:32;100003.94;;;16.81;100.00
60832;BME280;46665;51.558;-0.448;2023-09-19T10:15:26;99983.56;;;16.82;100.00
60832;BME280;46665;51.558;-0.448;2023-09-19T10:18:10;100006.53;;;16.77;100.00
60832;BME280;46665;51.558;-0.448;2023-09-19T10:20:56;99984.06;;;16.84;100.00
60832;BME280;46665;51.558;-0.448;2023-09-19T10:23:41;99990.13;;;16.89;100.00
60832;BME280;46665;51.558;-0.448;2023-09-19T10:26:28;99993.34;;;17.04;100.00
60832;BME280;46665;51.558;-0.448;2023-09-19T10:29:15;99991.66;;;17.11;100.00
60832;BME280;46665;51.558;-0.448;2023-09-19T10:32:03;99999.88;;;17.11;100.00
60832;BME280;46665;51.558;-0.448;2023-09-19T10:34:50;99989.84;;;17.16;100.00
60832;BME280;46665;51.558;-0.448;2023-09-19T10:37:35;99985.03;;;17.13;100.00
60832;BME280;46665;51.558;-0.448;2023-09-19T10:40:21;99992.91;;;17.14;100.00
60832;BME280;46665;51.558;-0.448;2023-09-19T10:43:12;99992.13;;;17.14;100.00
60832;BME280;46665;51.558;-0.448;2023-09-19T10:46:03;99986.75;;;17.17;100.00
60832;BME280;46665;51.558;-0.448;2023-09-19T10:48:51;100006.22;;;17.12;100.00
60832;BME280;46665;51.558;-0.448;2023-09-19T10:51:41;100000.94;;;17.07;100.00
60832;BME280;46665;51.558;-0.448;2023-09-19T10:54:30;99986.94;;;17.00;100.00
60832;BME280;46665;51.558;-0.448;2023-09-19T10:57:24;99986.16;;;16.99;100.00
60832;BME280;46665;51.558;-0.448;2023-09-19T11:00:09;99990.38;;;16.97;100.00
60832;BME280;46665;51.558;-0.448;2023-09-19T11:03:23;100002.50;;;16.96;100.00
60832;BME280;46665;51.558;-0.448;2023-09-19T11:06:16;99992.09;;;17.01;100.00
60832;BME280;46665;51.558;-0.448;2023-09-19T11:09:02;99977.78;;;17.08;100.00
60832;BME280;46665;51.558;-0.448;2023-09-19T11:11:58;99988.91;;;17.11;100.00
60832;BME280;46665;51.558;-0.448;2023-09-19T11:14:44;99981.13;;;17.14;100.00
60832;BME280;46665;51.558;-0.448;2023-09-19T11:17:36;99980.66;;;17.11;100.00
60832;BME280;46665;51.558;-0.448;2023-09-19T11:20:26;99977.09;;;17.11;100.00
60832;BME280;46665;51.558;-0.448;2023-09-19T11:23:20;99981.34;;;17.08;100.00
60832;BME280;46665;51.558;-0.448;2023-09-19T11:26:46;99995.28;;;17.03;100.00
60832;BME280;46665;51.558;-0.448;2023-09-19T11:29:33;99974.56;;;17.06;100.00
60832;BME280;46665;51.558;-0.448;2023-09-19T11:41:38;99974.97;;;17.17;100.00
60832;BME280;46665;51.558;-0.448;2023-09-19T11:44:41;99982.06;;;17.18;100.00
60832;BME280;46665;51.558;-0.448;2023-09-19T11:47:26;99987.41;;;17.14;100.00
60832;BME280;46665;51.558;-0.448;2023-09-19T12:03:14;99956.47;;;16.93;100.00
60832;BME280;46665;51.558;-0.448;2023-09-19T12:05:59;99957.25;;;16.93;100.00
60832;BME280;46665;51.558;-0.448;2023-09-19T12:08:44;99951.66;;;16.89;100.00
60832;BME280;46665;51.558;-0.448;2023-09-19T12:11:31;99950.38;;;16.87;100.00
60832;BME280;46665;51.558;-0.448;2023-09-19T12:14:23;99968.25;;;16.93;100.00
60832;BME280;46665;51.558;-0.448;2023-09-19T12:17:11;99961.25;;;16.83;100.00
60832;BME280;46665;51.558;-0.448;2023-09-19T12:19:57;99955.41;;;16.85;100.00
60832;BME280;46665;51.558;-0.448;2023-09-19T12:22:42;99947.88;;;16.82;100.00
60832;BME280;46665;51.558;-0.448;2023-09-19T12:25:42;99945.84;;;16.70;100.00
60832;BME280;46665;51.558;-0.448;2023-09-19T12:31:08;99960.38;;;16.71;100.00
60832;BME280;46665;51.558;-0.448;2023-09-19T12:33:56;99952.13;;;16.71;100.00
60832;BME280;46665;51.558;-0.448;2023-09-19T12:36:42;99942.50;;;16.64;100.00
60832;BME280;46665;51.558;-0.448;2023-09-19T12:39:32;99946.63;;;16.71;100.00
60832;BME280;46665;51.558;-0.448;2023-09-19T12:42:19;99920.19;;;16.54;100.00
60832;BME280;46665;51.558;-0.448;2023-09-19T12:45:07;99939.41;;;16.54;100.00
60832;BME280;46665;51.558;-0.448;2023-09-19T12:48:21;99957.84;;;16.65;100.00
60832;BME280;46665;51.558;-0.448;2023-09-19T12:51:19;99943.06;;;16.58;100.00
60832;BME280;46665;51.558;-0.448;2023-09-19T12:54:09;99921.19;;;16.49;100.00
60832;BME280;46665;51.558;-0.448;2023-09-19T12:56:54;99932.38;;;16.44;100.00
60832;BME280;46665;51.558;-0.448;2023-09-19T12:59:38;99952.44;;;16.57;100.00
60832;BME280;46665;51.558;-0.448;2023-09-19T13:02:23;99956.94;;;16.61;100.00
60832;BME280;46665;51.558;-0.448;2023-09-19T13:05:10;99971.00;;;16.60;100.00
60832;BME280;46665;51.558;-0.448;2023-09-19T13:07:54;99948.22;;;16.59;100.00
60832;BME280;46665;51.558;-0.448;2023-09-19T13:11:13;99956.94;;;16.61;100.00
60832;BME280;46665;51.558;-0.448;2023-09-19T13:14:18;99944.56;;;16.67;100.00
60832;BME280;46665;51.558;-0.448;2023-09-19T13:17:07;99948.13;;;16.68;100.00
60832;BME280;46665;51.558;-0.448;2023-09-19T13:20:02;99960.53;;;16.74;100.00
60832;BME280;46665;51.558;-0.448;2023-09-19T13:22:50;99942.84;;;16.84;100.00
60832;BME280;46665;51.558;-0.448;2023-09-19T13:25:38;99944.91;;;16.87;100.00
60832;BME280;46665;51.558;-0.448;2023-09-19T13:28:23;99957.72;;;16.95;100.00
60832;BME280;46665;51.558;-0.448;2023-09-19T13:31:09;99945.94;;;16.95;100.00
60832;BME280;46665;51.558;-0.448;2023-09-19T13:33:54;99957.28;;;17.05;100.00
60832;BME280;46665;51.558;-0.448;2023-09-19T13:36:38;99953.06;;;17.08;100.00
60832;BME280;46665;51.558;-0.448;2023-09-19T13:39:23;99960.97;;;17.09;100.00
60832;BME280;46665;51.558;-0.448;2023-09-19T13:42:08;99957.19;;;17.02;100.00
60832;BME280;46665;51.558;-0.448;2023-09-19T13:44:55;99968.75;;;17.07;100.00
60832;BME280;46665;51.558;-0.448;2023-09-19T13:47:40;99972.19;;;17.04;100.00
60832;BME280;46665;51.558;-0.448;2023-09-19T13:50:24;99967.47;;;17.05;100.00
60832;BME280;46665;51.558;-0.448;2023-09-19T13:53:09;99954.44;;;17.02;100.00
60832;BME280;46665;51.558;-0.448;2023-09-19T13:55:52;99950.84;;;17.01;100.00
60832;BME280;46665;51.558;-0.448;2023-09-19T13:58:36;99961.06;;;17.01;100.00
60832;BME280;46665;51.558;-0.448;2023-09-19T14:01:20;99947.19;;;16.97;100.00
60832;BME280;46665;51.558;-0.448;2023-09-19T14:04:05;99952.34;;;16.99;100.00
60832;BME280;46665;51.558;-0.448;2023-09-19T14:06:49;99964.97;;;17.00;100.00
60832;BME280;46665;51.558;-0.448;2023-09-19T14:09:33;99967.94;;;17.07;100.00
60832;BME280;46665;51.558;-0.448;2023-09-19T14:12:17;99955.91;;;17.11;100.00
60832;BME280;46665;51.558;-0.448;2023-09-19T14:15:01;99957.16;;;17.14;100.00
60832;BME280;46665;51.558;-0.448;2023-09-19T14:17:45;99952.84;;;17.13;100.00
60832;BME280;46665;51.558;-0.448;2023-09-19T14:20:29;99952.75;;;17.22;100.00
60832;BME280;46665;51.558;-0.448;2023-09-19T14:23:14;99947.22;;;17.34;100.00
60832;BME280;46665;51.558;-0.448;2023-09-19T14:26:01;99941.72;;;17.34;100.00
60832;BME280;46665;51.558;-0.448;2023-09-19T14:28:45;99942.09;;;17.32;100.00
60832;BME280;46665;51.558;-0.448;2023-09-19T14:31:29;99941.50;;;17.39;100.00
60832;BME280;46665;51.558;-0.448;2023-09-19T14:34:13;99945.97;;;17.44;100.00
60832;BME280;46665;51.558;-0.448;2023-09-19T14:36:58;99936.22;;;17.46;100.00
60832;BME280;46665;51.558;-0.448;2023-09-19T14:39:43;99937.03;;;17.47;100.00
60832;BME280;46665;51.558;-0.448;2023-09-19T14:42:28;99943.44;;;17.51;100.00
60832;BME280;46665;51.558;-0.448;2023-09-19T14:45:12;99946.44;;;17.58;100.00
60832;BME280;46665;51.558;-0.448;2023-09-19T14:48:00;99934.97;;;17.56;100.00